createdAt,value
2023-04-10T00:01:24.856Z,1.30
2023-04-10T00:03:57.132Z,0.93
2023-04-10T00:06:29.180Z,1.00
2023-04-10T00:09:01.634Z,0.93
2023-04-10T00:11:33.430Z,1.00
2023-04-10T00:14:04.920Z,1.10
2023-04-10T00:16:35.894Z,1.10
2023-04-10T00:19:07.329Z,1.00
2023-04-10T00:21:38.436Z,1.10
2023-04-10T00:24:09.868Z,1.00
2023-04-10T00:26:40.719Z,0.90
2023-04-10T00:29:09.303Z,0.83
2023-04-10T00:31:40.679Z,1.03
2023-04-10T00:34:10.080Z,1.10
2023-04-10T00:36:39.466Z,1.10
2023-04-10T00:39:12.011Z,1.00
2023-04-10T00:41:41.455Z,0.90
2023-04-10T00:44:11.292Z,1.00
2023-04-10T00:46:45.835Z,0.90
2023-04-10T00:49:15.139Z,1.10
2023-04-10T00:51:44.688Z,1.00
2023-04-10T00:54:18.217Z,0.87
2023-04-10T00:56:50.027Z,1.10
2023-04-10T00:59:20.615Z,1.20
2023-04-10T01:01:51.124Z,1.07
2023-04-10T01:04:23.024Z,0.90
2023-04-10T01:06:57.131Z,0.97
2023-04-10T01:09:33.113Z,0.90
2023-04-10T01:12:08.116Z,1.20
2023-04-10T01:14:45.212Z,1.20
2023-04-10T01:17:19.150Z,1.00
2023-04-10T01:20:02.526Z,0.70
2023-04-10T01:22:35.869Z,0.97
2023-04-10T01:25:18.814Z,1.00
2023-04-10T01:27:56.771Z,1.10
2023-04-10T01:30:28.091Z,1.10
2023-04-10T01:33:01.396Z,0.90
2023-04-10T01:35:32.501Z,1.20
2023-04-10T01:38:05.116Z,0.90
2023-04-10T01:40:35.951Z,1.10
2023-04-10T01:43:09.483Z,0.77
2023-04-10T01:45:45.021Z,0.73
2023-04-10T01:48:17.216Z,0.90
2023-04-10T01:50:48.497Z,0.87
2023-04-10T01:53:19.014Z,1.10
2023-04-10T01:55:49.040Z,1.30
2023-04-10T01:58:19.936Z,0.87
2023-04-10T02:00:54.752Z,0.80
2023-04-10T02:03:25.265Z,0.83
2023-04-10T02:05:59.899Z,0.90
2023-04-10T02:08:35.376Z,0.90
2023-04-10T02:11:09.928Z,1.23
2023-04-10T02:13:41.800Z,1.10
2023-04-10T02:16:15.027Z,0.80
2023-04-10T02:18:46.773Z,1.07
2023-04-10T02:21:17.988Z,0.80
2023-04-10T02:23:48.036Z,1.10
2023-04-10T02:26:18.866Z,0.90
2023-04-10T02:28:47.687Z,0.87
2023-04-10T02:31:18.646Z,0.90
2023-04-10T02:33:50.339Z,1.03
2023-04-10T02:36:20.670Z,1.10
2023-04-10T02:38:51.404Z,0.90
2023-04-10T02:41:21.137Z,0.90
2023-04-10T02:43:51.637Z,1.10
2023-04-10T02:46:24.736Z,1.00
2023-04-10T02:48:56.458Z,1.10
2023-04-10T02:51:26.554Z,0.80
2023-04-10T02:53:56.060Z,0.97
2023-04-10T02:56:27.771Z,0.97
2023-04-10T02:58:57.849Z,0.83
2023-04-10T03:01:30.688Z,1.00
2023-04-10T03:04:02.838Z,0.77
2023-04-10T03:06:32.755Z,1.10
2023-04-10T03:09:01.939Z,1.00
2023-04-10T03:11:31.309Z,0.80
2023-04-10T03:14:01.525Z,0.97
2023-04-10T03:16:33.568Z,0.80
2023-04-10T03:19:04.277Z,0.80
2023-04-10T03:21:34.852Z,0.80
2023-04-10T03:24:05.924Z,1.00
2023-04-10T03:26:37.507Z,1.00
2023-04-10T03:29:06.536Z,0.80
2023-04-10T03:31:38.284Z,0.93
2023-04-10T03:34:07.478Z,1.00
2023-04-10T03:36:36.033Z,0.97
2023-04-10T03:39:06.733Z,1.10
2023-04-10T03:41:37.643Z,1.00
2023-04-10T03:44:07.136Z,1.07
2023-04-10T03:46:40.638Z,0.90
2023-04-10T03:49:11.194Z,0.90
2023-04-10T03:51:42.521Z,0.87
2023-04-10T03:54:15.403Z,1.10
2023-04-10T03:56:45.089Z,0.90
2023-04-10T03:59:13.857Z,1.07
2023-04-10T04:01:46.186Z,0.93
2023-04-10T04:04:17.563Z,0.90
2023-04-10T04:06:50.923Z,0.90
2023-04-10T04:09:23.175Z,1.07
2023-04-10T04:11:52.376Z,1.00
2023-04-10T04:14:21.602Z,0.60
2023-04-10T04:16:55.542Z,0.90
2023-04-10T04:19:26.402Z,0.90
2023-04-10T04:21:56.116Z,1.00
2023-04-10T04:24:27.895Z,1.00
2023-04-10T04:26:57.308Z,0.90
2023-04-10T04:29:28.868Z,0.90
2023-04-10T04:32:00.434Z,1.00
2023-04-10T04:34:30.347Z,0.90
2023-04-10T04:36:59.432Z,0.87
2023-04-10T04:39:29.427Z,1.03
2023-04-10T04:42:00.575Z,0.90
2023-04-10T04:44:30.400Z,1.07
2023-04-10T04:47:02.214Z,1.00
2023-04-10T04:49:32.863Z,0.80
2023-04-10T04:52:04.447Z,0.83
2023-04-10T04:54:34.406Z,0.73
2023-04-10T04:57:06.568Z,0.90
2023-04-10T04:59:35.353Z,0.90
2023-04-10T05:02:08.571Z,0.80
2023-04-10T05:04:38.287Z,0.80
2023-04-10T05:07:07.245Z,0.80
2023-04-10T05:09:36.925Z,0.90
2023-04-10T05:12:06.469Z,1.00
2023-04-10T05:14:36.838Z,0.80
2023-04-10T05:17:09.420Z,0.80
2023-04-10T05:19:40.735Z,0.87
2023-04-10T05:22:09.943Z,0.97
2023-04-10T05:24:39.548Z,0.70
2023-04-10T05:27:09.265Z,0.70
2023-04-10T05:29:38.434Z,0.70
2023-04-10T05:32:09.960Z,0.90
2023-04-10T05:34:39.785Z,0.83
2023-04-10T05:37:13.539Z,0.80
2023-04-10T05:39:42.990Z,0.90
2023-04-10T05:42:13.948Z,0.70
2023-04-10T05:44:44.209Z,1.00
2023-04-10T05:47:16.733Z,0.93
2023-04-10T05:49:46.696Z,0.70
2023-04-10T05:52:15.703Z,1.00
2023-04-10T05:54:46.069Z,0.80
2023-04-10T05:57:15.804Z,0.70
2023-04-10T05:59:46.559Z,0.80
2023-04-10T06:02:17.732Z,0.80
2023-04-10T06:04:49.217Z,0.97
2023-04-10T06:07:18.575Z,0.80
2023-04-10T06:09:49.288Z,0.90
2023-04-10T06:12:19.960Z,0.90
2023-04-10T06:14:50.513Z,0.80
2023-04-10T06:17:23.537Z,0.90
2023-04-10T06:19:52.788Z,0.93
2023-04-10T06:22:21.571Z,0.90
2023-04-10T06:24:52.239Z,0.80
2023-04-10T06:27:22.552Z,1.00
2023-04-10T06:29:52.829Z,0.97
2023-04-10T06:32:25.254Z,0.90
2023-04-10T06:34:56.375Z,0.87
2023-04-10T06:37:32.069Z,1.07
2023-04-10T06:40:06.150Z,1.10
2023-04-10T06:42:37.684Z,0.90
2023-04-10T06:45:07.038Z,1.20
2023-04-10T06:47:39.019Z,0.83
2023-04-10T06:50:09.804Z,0.90
2023-04-10T06:52:39.239Z,1.10
2023-04-10T06:55:11.550Z,0.90
2023-04-10T06:57:41.497Z,0.90
2023-04-10T07:00:12.694Z,0.90
2023-04-10T07:02:45.280Z,0.87
2023-04-10T07:05:16.395Z,0.90
2023-04-10T07:07:47.823Z,0.90
2023-04-10T07:10:18.283Z,0.90
2023-04-10T07:12:47.703Z,0.87
2023-04-10T07:15:17.592Z,1.03
2023-04-10T07:17:50.332Z,1.03
2023-04-10T07:20:20.112Z,0.93
2023-04-10T07:22:50.142Z,0.80
2023-04-10T07:25:20.033Z,0.80
2023-04-10T07:27:50.558Z,1.00
2023-04-10T07:30:19.509Z,1.10
2023-04-10T07:32:51.104Z,0.80
2023-04-10T07:35:22.916Z,0.90
2023-04-10T07:37:54.884Z,0.90
2023-04-10T07:40:24.647Z,1.00
2023-04-10T07:42:53.970Z,1.10
2023-04-10T07:45:24.000Z,1.00
2023-04-10T07:47:55.824Z,0.90
2023-04-10T07:50:26.582Z,1.00
2023-04-10T07:52:55.561Z,1.10
2023-04-10T07:55:28.558Z,0.90
2023-04-10T07:57:58.558Z,1.10
2023-04-10T08:00:27.306Z,1.17
2023-04-10T08:03:00.438Z,1.40
2023-04-10T08:05:30.758Z,1.37
2023-04-10T08:08:02.164Z,1.00
2023-04-10T08:10:32.655Z,0.90
2023-04-10T08:13:02.136Z,1.03
2023-04-10T08:15:33.720Z,1.10
2023-04-10T08:18:05.904Z,1.30
2023-04-10T08:20:37.339Z,1.10
2023-04-10T08:23:19.920Z,0.90
2023-04-10T08:25:56.563Z,0.90
2023-04-10T08:28:26.846Z,1.00
2023-04-10T08:30:55.758Z,1.03
2023-04-10T08:33:29.769Z,1.10
2023-04-10T08:36:02.043Z,1.20
2023-04-10T08:38:31.336Z,1.03
2023-04-10T08:41:01.248Z,1.00
2023-04-10T08:43:30.333Z,0.83
2023-04-10T08:46:01.442Z,1.10
2023-04-10T08:48:35.667Z,1.00
2023-04-10T08:51:08.895Z,1.30
2023-04-10T08:53:43.872Z,1.07
2023-04-10T08:56:16.096Z,1.27
2023-04-10T08:58:47.189Z,1.00
2023-04-10T09:01:17.570Z,1.20
2023-04-10T09:03:50.482Z,0.90
2023-04-10T09:06:21.655Z,1.00
2023-04-10T09:08:50.739Z,1.00
2023-04-10T09:11:19.736Z,1.07
2023-04-10T09:13:49.299Z,1.03
2023-04-10T09:16:20.183Z,1.07
2023-04-10T09:18:53.551Z,1.20
2023-04-10T09:21:25.110Z,1.17
2023-04-10T09:24:02.545Z,0.83
2023-04-10T09:26:34.309Z,1.30
2023-04-10T09:29:04.264Z,1.00
2023-04-10T09:31:34.526Z,1.00
2023-04-10T09:34:16.224Z,1.27
2023-04-10T09:36:49.870Z,1.37
2023-04-10T09:39:19.568Z,1.27
2023-04-10T09:41:53.394Z,1.20
2023-04-10T09:44:32.944Z,1.13
2023-04-10T09:47:19.817Z,1.20
2023-04-10T09:49:55.331Z,1.00
2023-04-10T09:52:27.303Z,1.10
2023-04-10T09:54:57.216Z,1.40
2023-04-10T09:57:28.394Z,1.37
2023-04-10T09:59:58.477Z,1.10
2023-04-10T10:02:31.402Z,1.20
2023-04-10T10:05:07.915Z,1.10
2023-04-10T10:07:37.875Z,1.20
2023-04-10T10:10:10.194Z,1.10
2023-04-10T10:12:46.993Z,1.30
2023-04-10T10:15:19.232Z,1.70
2023-04-10T10:17:52.524Z,1.30
2023-04-10T10:20:25.293Z,1.00
2023-04-10T10:22:55.506Z,1.40
2023-04-10T10:25:27.967Z,1.10
2023-04-10T10:27:58.270Z,1.03
2023-04-10T10:30:30.672Z,1.27
2023-04-10T10:33:00.794Z,1.20
2023-04-10T10:35:34.151Z,1.20
2023-04-10T10:38:05.218Z,1.30
2023-04-10T10:40:36.806Z,1.10
2023-04-10T10:43:11.789Z,1.20
2023-04-10T10:45:45.833Z,1.00
2023-04-10T10:48:16.495Z,1.23
2023-04-10T10:50:58.417Z,1.43
2023-04-10T10:53:39.007Z,1.20
2023-04-10T10:56:27.816Z,1.00
2023-04-10T10:59:03.975Z,1.70
2023-04-10T11:01:33.543Z,1.00
2023-04-10T11:04:24.133Z,1.07
2023-04-10T11:06:55.733Z,1.20
2023-04-10T11:09:42.891Z,1.20
2023-04-10T11:12:14.718Z,1.10
2023-04-10T11:14:45.746Z,1.10
2023-04-10T11:17:14.811Z,1.10
2023-04-10T11:20:04.187Z,1.10
2023-04-10T11:22:55.193Z,1.20
2023-04-10T11:25:26.172Z,1.00
2023-04-10T11:27:56.765Z,1.07
2023-04-10T11:30:30.312Z,0.73
2023-04-10T11:33:00.575Z,0.87
2023-04-10T11:35:32.253Z,0.70
2023-04-10T11:38:17.530Z,0.70
2023-04-10T11:40:59.481Z,0.90
2023-04-10T11:43:29.197Z,0.80
2023-04-10T11:46:04.220Z,1.00
2023-04-10T11:48:34.984Z,1.00
2023-04-10T11:51:11.325Z,0.77
2023-04-10T11:53:40.605Z,1.30
2023-04-10T11:56:18.330Z,0.90
2023-04-10T11:58:50.009Z,0.70
2023-04-10T12:01:23.671Z,0.70
2023-04-10T12:03:52.814Z,0.60
2023-04-10T12:06:23.804Z,1.00
2023-04-10T12:08:55.009Z,0.80
2023-04-10T12:11:26.261Z,0.70
2023-04-10T12:13:56.604Z,0.70
2023-04-10T12:16:26.550Z,0.67
2023-04-10T12:18:56.243Z,0.77
2023-04-10T12:21:26.612Z,0.70
2023-04-10T12:23:55.991Z,0.93
2023-04-10T12:26:28.419Z,0.70
2023-04-10T12:29:00.100Z,0.80
2023-04-10T12:31:31.833Z,0.70
2023-04-10T12:34:02.504Z,0.70
2023-04-10T12:36:32.330Z,0.70
2023-04-10T12:39:05.097Z,0.70
2023-04-10T12:41:38.659Z,0.70
2023-04-10T12:44:11.246Z,0.67
2023-04-10T12:46:41.058Z,0.70
2023-04-10T12:49:14.002Z,0.73
2023-04-10T12:51:47.133Z,0.80
2023-04-10T12:54:29.403Z,0.73
2023-04-10T12:57:00.243Z,0.83
2023-04-10T12:59:30.743Z,0.93
2023-04-10T13:02:02.096Z,0.80
2023-04-10T13:04:33.436Z,0.70
2023-04-10T13:07:03.359Z,0.60
2023-04-10T13:09:35.619Z,0.60
2023-04-10T13:12:08.676Z,0.70
2023-04-10T13:14:38.558Z,0.60
2023-04-10T13:17:09.291Z,0.80
2023-04-10T13:19:38.117Z,0.80
2023-04-10T13:22:09.366Z,0.73
2023-04-10T13:24:40.523Z,0.80
2023-04-10T13:27:13.116Z,0.77
2023-04-10T13:29:46.581Z,1.03
2023-04-10T13:32:18.286Z,0.87
2023-04-10T13:34:49.281Z,0.90
2023-04-10T13:37:20.711Z,0.80
2023-04-10T13:39:50.388Z,0.73
2023-04-10T13:42:24.009Z,0.90
2023-04-10T13:44:54.011Z,0.90
2023-04-10T13:47:24.212Z,0.73
2023-04-10T13:49:53.015Z,0.70
2023-04-10T13:52:22.964Z,0.80
2023-04-10T13:54:55.170Z,1.00
2023-04-10T13:57:25.716Z,0.83
2023-04-10T13:59:57.015Z,0.93
2023-04-10T14:02:26.081Z,0.87
2023-04-10T14:04:55.332Z,0.90
2023-04-10T14:07:28.545Z,1.10
2023-04-10T14:10:01.257Z,1.10
2023-04-10T14:12:33.768Z,0.80
2023-04-10T14:15:05.137Z,0.83
2023-04-10T14:17:36.015Z,0.90
2023-04-10T14:20:06.910Z,0.90
2023-04-10T14:22:37.195Z,0.90
2023-04-10T14:25:13.006Z,0.83
2023-04-10T14:27:45.846Z,0.70
2023-04-10T14:30:15.289Z,0.80
2023-04-10T14:32:44.438Z,0.70
2023-04-10T14:35:14.972Z,1.00
2023-04-10T14:37:44.527Z,0.77
2023-04-10T14:40:14.953Z,0.70
2023-04-10T14:42:46.776Z,0.60
2023-04-10T14:45:20.091Z,0.60
2023-04-10T14:47:51.927Z,0.43
2023-04-10T14:50:22.744Z,0.60
2023-04-10T14:52:54.355Z,0.50
2023-04-10T14:55:25.284Z,0.47
2023-04-10T14:57:58.577Z,0.50
2023-04-10T15:00:30.972Z,0.70
2023-04-10T15:03:01.668Z,0.40
2023-04-10T15:05:30.569Z,0.50
2023-04-10T15:08:01.203Z,0.53
2023-04-10T15:10:33.485Z,0.50
2023-04-10T15:13:06.279Z,0.60
2023-04-10T15:15:37.200Z,0.40
2023-04-10T15:18:07.711Z,0.40
2023-04-10T15:20:39.341Z,0.40
2023-04-10T15:23:08.672Z,0.40
2023-04-10T15:25:37.515Z,0.70
2023-04-10T15:28:11.761Z,0.33
2023-04-10T15:30:47.114Z,0.50
2023-04-10T15:33:17.010Z,0.37
2023-04-10T15:35:50.771Z,0.50
2023-04-10T15:38:19.803Z,0.53
2023-04-10T15:40:50.400Z,0.50
2023-04-10T15:43:22.920Z,0.60
2023-04-10T15:45:54.156Z,0.60
2023-04-10T15:48:26.853Z,0.47
2023-04-10T15:50:56.128Z,0.40
2023-04-10T15:53:25.748Z,0.50
2023-04-10T15:55:56.921Z,0.43
2023-04-10T15:58:28.557Z,0.60
2023-04-10T16:00:57.507Z,0.50
2023-04-10T16:03:29.386Z,0.27
2023-04-10T16:06:01.035Z,0.60
2023-04-10T16:08:30.605Z,0.40
2023-04-10T16:11:00.015Z,0.30
2023-04-10T16:13:32.451Z,0.50
2023-04-10T16:16:01.523Z,0.63
2023-04-10T16:18:32.588Z,0.53
2023-04-10T16:21:01.829Z,0.67
2023-04-10T16:23:30.798Z,0.53
2023-04-10T16:26:00.376Z,0.60
2023-04-10T16:28:32.035Z,0.30
2023-04-10T16:31:02.165Z,0.40
2023-04-10T16:33:33.361Z,0.40
2023-04-10T16:36:04.809Z,0.50
2023-04-10T16:38:35.447Z,0.50
2023-04-10T16:41:04.243Z,0.50
2023-04-10T16:43:40.534Z,0.57
2023-04-10T16:46:09.950Z,0.50
2023-04-10T16:48:38.856Z,0.40
2023-04-10T16:51:09.288Z,0.40
2023-04-10T16:53:41.023Z,0.50
2023-04-10T16:56:11.947Z,0.50
2023-04-10T16:58:44.363Z,0.47
2023-04-10T17:01:17.878Z,0.60
2023-04-10T17:03:48.023Z,0.40
2023-04-10T17:06:17.935Z,0.70
2023-04-10T17:08:48.941Z,0.60
2023-04-10T17:11:19.009Z,0.60
2023-04-10T17:13:52.294Z,0.60
2023-04-10T17:16:22.006Z,0.50
2023-04-10T17:18:51.322Z,0.60
2023-04-10T17:21:23.222Z,0.67
2023-04-10T17:23:53.072Z,0.50
2023-04-10T17:26:23.208Z,0.40
2023-04-10T17:28:57.878Z,0.60
2023-04-10T17:31:26.921Z,0.60
2023-04-10T17:33:56.310Z,0.50
2023-04-10T17:36:25.248Z,0.33
2023-04-10T17:38:54.407Z,0.47
2023-04-10T17:41:23.467Z,0.50
2023-04-10T17:43:55.908Z,0.40
2023-04-10T17:46:24.724Z,0.50
2023-04-10T17:49:00.197Z,0.53
2023-04-10T17:51:56.306Z,0.50
2023-04-10T17:54:55.208Z,0.57
2023-04-10T17:57:27.933Z,0.50
2023-04-10T17:59:59.690Z,0.47
2023-04-10T18:02:29.171Z,0.43
2023-04-10T18:05:00.724Z,0.43
2023-04-10T18:07:30.699Z,0.50
2023-04-10T18:10:00.205Z,0.63
2023-04-10T18:12:33.806Z,0.57
2023-04-10T18:15:05.374Z,0.43
2023-04-10T18:17:39.631Z,0.60
2023-04-10T18:20:08.956Z,0.57
2023-04-10T18:22:40.481Z,0.40
2023-04-10T18:25:12.525Z,0.30
2023-04-10T18:27:51.429Z,0.53
2023-04-10T18:30:24.491Z,0.50
2023-04-10T18:32:54.873Z,0.67
2023-04-10T18:35:25.427Z,0.63
2023-04-10T18:37:55.872Z,0.60
2023-04-10T18:40:27.204Z,0.47
2023-04-10T18:42:56.471Z,0.60
2023-04-10T18:45:28.706Z,0.50
2023-04-10T18:47:58.023Z,0.60
2023-04-10T18:50:27.206Z,0.50
2023-04-10T18:53:01.120Z,0.60
2023-04-10T18:55:31.971Z,0.47
2023-04-10T18:58:02.362Z,0.57
2023-04-10T19:00:34.885Z,0.60
2023-04-10T19:03:06.637Z,0.60
2023-04-10T19:05:37.349Z,0.50
2023-04-10T19:08:11.012Z,0.50
2023-04-10T19:10:40.304Z,0.60
2023-04-10T19:13:10.779Z,0.57
2023-04-10T19:15:44.607Z,0.60
2023-04-10T19:18:16.677Z,0.88
2023-04-10T19:20:52.014Z,0.80
2023-04-10T19:23:23.850Z,0.53
2023-04-10T19:25:59.047Z,0.60
2023-04-10T19:28:28.346Z,0.57
2023-04-10T19:31:01.373Z,0.63
2023-04-10T19:33:31.896Z,0.50
2023-04-10T19:36:01.740Z,0.50
2023-04-10T19:38:32.586Z,0.70
2023-04-10T19:41:02.068Z,0.60
2023-04-10T19:43:32.301Z,0.60
2023-04-10T19:46:02.979Z,0.80
2023-04-10T19:48:33.709Z,0.63
2023-04-10T19:51:05.825Z,0.60
2023-04-10T19:53:36.361Z,0.60
2023-04-10T19:56:06.063Z,0.67
2023-04-10T19:58:40.691Z,0.80
2023-04-10T20:01:12.555Z,0.70
2023-04-10T20:03:43.752Z,0.77
2023-04-10T20:06:15.289Z,0.50
2023-04-10T20:08:49.330Z,0.60
2023-04-10T20:11:19.374Z,0.67
2023-04-10T20:13:49.018Z,0.70
2023-04-10T20:16:19.870Z,0.67
2023-04-10T20:18:50.197Z,0.80
2023-04-10T20:21:19.588Z,0.60
2023-04-10T20:23:51.881Z,0.70
2023-04-10T20:26:23.459Z,0.70
2023-04-10T20:28:54.849Z,0.70
2023-04-10T20:31:28.270Z,0.70
2023-04-10T20:33:58.868Z,0.80
2023-04-10T20:36:31.876Z,0.63
2023-04-10T20:39:03.407Z,0.70
2023-04-10T20:41:33.480Z,0.60
2023-04-10T20:44:04.718Z,0.80
2023-04-10T20:46:38.390Z,0.57
2023-04-10T20:49:08.492Z,0.70
2023-04-10T20:51:39.990Z,0.70
2023-04-10T20:54:13.067Z,0.80
2023-04-10T20:56:44.189Z,0.60
2023-04-10T20:59:14.228Z,0.87
2023-04-10T21:01:46.860Z,0.70
2023-04-10T21:04:18.427Z,0.80
2023-04-10T21:06:47.364Z,0.67
2023-04-10T21:09:16.891Z,0.73
2023-04-10T21:11:50.182Z,0.80
2023-04-10T21:14:20.136Z,0.80
2023-04-10T21:16:53.652Z,0.60
2023-04-10T21:19:25.164Z,0.90
2023-04-10T21:21:54.509Z,0.60
2023-04-10T21:24:24.026Z,0.60
2023-04-10T21:26:56.811Z,0.70
2023-04-10T21:29:27.707Z,0.77
2023-04-10T21:32:00.296Z,0.70
2023-04-10T21:34:30.658Z,0.77
2023-04-10T21:37:02.479Z,0.83
2023-04-10T21:39:32.618Z,0.73
2023-04-10T21:42:01.508Z,0.80
2023-04-10T21:44:31.508Z,0.70
2023-04-10T21:47:03.531Z,0.70
2023-04-10T21:49:33.714Z,0.70
2023-04-10T21:52:02.915Z,0.87
2023-04-10T21:54:32.411Z,0.80
2023-04-10T21:57:03.657Z,0.70
2023-04-10T21:59:33.505Z,0.80
2023-04-10T22:02:05.924Z,1.00
2023-04-10T22:04:38.913Z,0.67
2023-04-10T22:07:16.859Z,0.70
2023-04-10T22:09:47.490Z,0.90
2023-04-10T22:12:18.757Z,0.80
2023-04-10T22:14:49.862Z,0.73
2023-04-10T22:17:22.763Z,1.00
2023-04-10T22:19:51.676Z,0.77
2023-04-10T22:22:21.402Z,0.70
2023-04-10T22:24:52.043Z,0.77
2023-04-10T22:27:21.016Z,0.70
2023-04-10T22:30:02.038Z,0.80
2023-04-10T22:32:34.857Z,0.80
2023-04-10T22:35:04.006Z,0.67
2023-04-10T22:37:35.644Z,1.00
2023-04-10T22:40:05.216Z,0.70
2023-04-10T22:42:36.772Z,0.70
2023-04-10T22:45:07.527Z,1.00
2023-04-10T22:47:38.019Z,0.80
2023-04-10T22:50:08.333Z,0.70
2023-04-10T22:52:41.069Z,0.80
2023-04-10T22:55:12.978Z,0.77
2023-04-10T22:57:48.369Z,0.80
2023-04-10T23:00:17.612Z,0.80
2023-04-10T23:02:50.028Z,0.80
2023-04-10T23:05:19.729Z,1.00
2023-04-10T23:07:49.036Z,1.00
2023-04-10T23:10:19.838Z,0.93
2023-04-10T23:12:53.123Z,0.80
2023-04-10T23:15:22.932Z,0.80
2023-04-10T23:17:54.477Z,0.80
2023-04-10T23:20:23.619Z,0.90
2023-04-10T23:22:56.742Z,0.90
2023-04-10T23:25:26.318Z,0.80
2023-04-10T23:27:57.632Z,0.80
2023-04-10T23:30:27.944Z,0.90
2023-04-10T23:33:01.258Z,0.73
2023-04-10T23:35:30.549Z,0.70
2023-04-10T23:38:02.686Z,0.93
2023-04-10T23:40:32.611Z,0.90
2023-04-10T23:43:01.406Z,0.80
2023-04-10T23:45:31.747Z,0.80
2023-04-10T23:48:04.253Z,1.03
2023-04-10T23:50:34.059Z,0.83
2023-04-10T23:53:06.316Z,0.87
2023-04-10T23:55:35.282Z,1.00
2023-04-10T23:58:05.084Z,0.77
